Latest Weather Observations for Hopetoun Airport

IDV60801

Issued at 5:42 pm EST Sunday 15 September 2019 (issued every 10 minutes, with the page automatically refreshed every 10 minutes)

About weather observations | Map of weather stations | Latest weather observations for VIC | Other Formats
Station Details ID: 077010 Name: HOPETOUN AIRPORT Lat: -35.72 Lon: 142.36 Height: 77.3 m
Data from the previous 72 hours. | See also: Recent months at Hopetoun Airport
Date/Time
EST
Temp
°C
App
Temp
°C
Dew
Point
°C
Rel
Hum
%
Delta-T
°C
Wind Press
QNH
hPa
Press
MSL
hPa
Rain since
9am
mm
Dir  Spd
km/h
Gust
km/h
Spd
kts
Gust
kts
15/05:30pm 23.4 21.1 7.5 36 8.3 WNW 9 13 5 7 1015.9 1016.0 0.0
15/05:00pm 24.2 20.8 7.8 35 8.7 W 15 20 8 11 1015.8 1015.9 0.0
15/04:30pm 25.1 22.0 7.3 32 9.4 W 13 17 7 9 1015.2 1015.3 0.0
15/04:00pm 26.2 20.4 6.3 28 10.4 W 26 37 14 20 1015.6 1015.7 0.0
15/03:30pm 27.3 21.5 6.1 26 11.1 W 26 39 14 21 1015.4 1015.5 0.0
15/03:00pm 27.5 20.3 5.1 24 11.5 W 32 43 17 23 1015.2 1015.3 0.0
15/02:30pm 28.6 22.1 4.8 22 12.3 W 28 37 15 20 1015.5 1015.6 0.0
15/02:00pm 28.8 20.8 3.6 20 12.7 WNW 35 48 19 26 1015.9 1016.0 0.0
15/01:36pm 29.2 21.9 4.6 21 12.7 WNW 32 52 17 28 1016.1 1016.2 0.0
15/01:30pm 28.9 21.7 5.1 22 12.4 WNW 32 44 17 24 1016.3 1016.3 0.0
15/01:00pm 28.9 21.7 5.7 23 12.2 WNW 33 46 18 25 1016.8 1016.8 0.0
15/12:30pm 28.5 20.8 5.4 23 12.0 WNW 35 48 19 26 1017.3 1017.3 0.0
15/12:00pm 27.9 20.6 5.5 24 11.6 WNW 33 43 18 23 1017.4 1017.4 0.0
15/11:30am 28.3 21.4 6.4 25 11.6 NW 32 43 17 23 1017.6 1017.6 0.0
15/11:00am 26.4 19.8 5.9 27 10.6 NW 30 41 16 22 1018.1 1018.1 0.0
15/10:30am 24.7 19.3 6.4 31 9.5 NW 24 37 13 20 1018.6 1018.6 0.0
15/10:00am 22.4 16.5 5.8 34 8.4 NNW 26 35 14 19 1018.8 1018.8 0.0
15/09:30am 20.5 16.5 6.8 41 7.0 NW 17 22 9 12 1019.4 1019.4 0.0
15/09:00am 18.6 14.4 5.8 43 6.3 NNW 17 20 9 11 1019.3 1019.3 0.0
15/08:30am 17.7 13.0 5.0 43 6.1 NNW 19 22 10 12 1019.3 1019.3 0.0
15/08:00am 16.3 11.5 4.7 46 5.5 N 19 24 10 13 1019.1 1019.1 0.0
15/07:30am 15.4 10.4 3.5 45 5.5 N 19 24 10 13 1018.9 1018.9 0.0
15/07:00am 14.3 10.0 3.5 48 4.9 N 15 19 8 10 1019.2 1019.2 0.0
15/06:30am 12.5 9.0 3.7 55 4.0 N 11 13 6 7 1019.2 1019.2 0.0
15/06:00am 12.6 9.6 4.3 57 3.8 N 9 13 5 7 1019.3 1019.3 0.0
15/05:30am 11.0 8.5 4.9 66 2.8 NNE 7 9 4 5 1019.3 1019.3 0.0
15/05:00am 10.6 8.1 4.5 66 2.7 NNE 7 9 4 5 1019.5 1019.5 0.0
15/04:30am 11.5 9.2 4.7 63 3.1 NNE 6 7 3 4 1019.5 1019.5 0.0
15/04:00am 12.9 11.0 4.8 58 3.7 NW 4 4 2 2 1019.9 1019.9 0.0
15/03:30am 13.5 11.9 4.4 54 4.2 NNW 2 9 1 5 1020.0 1020.0 0.0
15/03:00am 13.4 10.9 4.6 55 4.0 N 7 11 4 6 1020.0 1020.0 0.0
15/02:30am 12.2 9.4 3.4 55 3.9 NW 7 9 4 5 1020.2 1020.2 0.0
15/02:00am 12.8 9.2 3.2 52 4.3 N 11 13 6 7 1020.0 1020.0 0.0
15/01:30am 11.9 8.1 1.8 50 4.3 N 11 13 6 7 1020.4 1020.4 0.0
15/01:00am 9.3 6.6 2.9 64 2.7 NNE 6 7 3 4 1021.3 1021.3 0.0
15/12:30am 8.3 5.4 1.7 63 2.7 NNE 6 7 3 4 1021.6 1021.6 0.0
15/12:00am 8.8 6.0 1.9 62 2.9 N 6 6 3 3 1022.1 1022.1 0.0
 
Date/Time
EST
Temp
°C
App
Temp
°C
Dew
Point
°C
Rel
Hum
%
Delta-T
°C
Wind Press
QNH
hPa
Press
MSL
hPa
Rain since
9am
mm
Dir  Spd
km/h
Gust
km/h
Spd
kts
Gust
kts
14/11:30pm 10.8 7.9 1.4 52 3.9 N 6 6 3 3 1022.2 1022.2 0.0
14/11:00pm 9.8 7.2 1.2 55 3.5 N 4 6 2 3 1022.5 1022.5 0.0
14/10:30pm 10.2 7.5 0.3 50 4.0 N 4 6 2 3 1023.1 1023.1 0.0
14/10:00pm 11.4 8.1 -0.1 45 4.7 NNW 7 13 4 7 1023.3 1023.3 0.0
14/09:30pm 11.4 7.7 0.2 46 4.6 N 9 13 5 7 1023.4 1023.4 0.0
14/09:00pm 10.6 7.3 2.4 57 3.5 N 9 11 5 6 1023.4 1023.4 0.0
14/08:30pm 10.7 9.3 3.3 60 3.2 CALM 0 0 0 0 1023.8 1023.8 0.0
14/08:00pm 12.4 10.9 3.1 53 4.1 CALM 0 0 0 0 1023.9 1023.9 0.0
14/07:30pm 12.8 11.4 3.7 54 4.1 CALM 0 0 0 0 1023.8 1023.8 0.0
14/07:00pm 13.4 10.9 4.0 53 4.3 N 6 6 3 3 1023.7 1023.7 0.0
14/06:30pm 16.1 13.8 4.8 47 5.4 NW 6 6 3 3 1023.8 1023.8 0.0
14/06:00pm 19.4 16.9 3.6 35 7.5 WNW 6 7 3 4 1023.8 1023.8 0.0
14/05:30pm 22.1 18.6 1.2 25 9.6 WNW 9 11 5 6 1023.5 1023.5 0.0
14/05:00pm 23.1 19.4 0.2 22 10.4 W 9 13 5 7 1023.4 1023.4 0.0
14/04:30pm 23.3 19.9 1.6 24 10.2 W 9 17 5 9 1023.3 1023.3 0.0
14/04:00pm 23.6 19.8 -0.6 20 10.9 WNW 9 17 5 9 1023.6 1023.6 0.0
14/03:30pm 22.8 19.0 -0.6 21 10.5 NW 9 17 5 9 1023.7 1023.7 0.0
14/03:00pm 22.6 18.6 2.7 27 9.4 N 13 20 7 11 1023.9 1023.9 0.0
14/02:30pm 21.5 17.4 2.2 28 9.0 NNW 13 22 7 12 1024.3 1024.4 0.0
14/02:00pm 20.6 17.6 4.2 34 7.9 NNE 9 13 5 7 1024.6 1024.7 0.0
14/01:30pm 19.3 16.5 5.0 39 7.0 N 9 17 5 9 1024.8 1024.9 0.0
14/01:00pm 18.5 15.8 5.4 42 6.4 NNE 9 17 5 9 1025.4 1025.5 0.0
14/12:30pm 17.6 15.8 5.5 45 5.9 NNE 4 7 2 4 1026.1 1026.2 0.0
14/12:00pm 17.7 16.7 7.2 50 5.2 NNE 2 6 1 3 1027.1 1027.2 0.0
14/11:30am 16.0 14.5 6.7 54 4.6 NNE 4 11 2 6 1027.4 1027.5 0.0
14/11:00am 14.1 12.6 6.7 61 3.6 SW 4 9 2 5 1027.7 1027.8 0.0
14/10:30am 13.6 12.2 7.4 66 3.0 SE 4 7 2 4 1028.0 1028.1 0.0
14/10:00am 13.0 11.4 8.1 72 2.4 S 6 9 3 5 1028.4 1028.5 0.0
14/09:30am 11.9 10.6 9.8 87 1.1 S 7 11 4 6 1028.7 1028.8 0.0
14/09:00am 10.2 9.0 10.2 100 0.0 S 7 9 4 5 1028.6 1028.7 0.0
14/08:30am 8.3 6.8 8.3 100 0.0 SSW 6 9 3 5 1028.3 1028.4 0.0
14/08:00am 6.4 5.6 6.4 100 0.0 CALM 0 2 0 1 1028.0 1028.1 0.0
14/07:30am 3.2 1.7 3.2 100 0.0 CALM 0 0 0 0 1028.0 1028.1 0.0
14/07:00am 0.9 -1.0 0.8 99 0.0 CALM 0 0 0 0 1027.6 1027.7 0.0
14/06:30am 1.1 -0.7 1.0 99 0.0 CALM 0 0 0 0 1027.3 1027.4 0.0
14/06:00am 2.2 -0.6 2.1 99 0.0 SW 6 6 3 3 1027.2 1027.3 0.0
14/05:30am 2.5 0.1 2.4 99 0.0 WSW 4 6 2 3 1027.1 1027.2 0.0
14/05:00am 2.3 -0.1 2.2 99 0.0 WSW 4 6 2 3 1026.9 1027.0 0.0
14/04:30am 2.5 0.1 2.4 99 0.0 WSW 4 9 2 5 1026.7 1026.8 0.0
14/04:00am 2.7 -0.2 2.6 99 0.0 WSW 7 11 4 6 1026.8 1026.9 0.0
14/03:30am 3.0 0.2 2.9 99 0.0 WSW 7 9 4 5 1026.9 1027.0 0.0
14/03:00am 3.2 0.0 3.1 99 0.0 WSW 9 11 5 6 1027.2 1027.3 0.0
14/02:30am 4.1 1.6 4.0 99 0.0 WSW 6 7 3 4 1027.3 1027.4 0.0
14/02:00am 5.0 2.7 4.9 99 0.0 W 6 7 3 4 1027.4 1027.5 0.0
14/01:30am 5.6 3.8 5.5 99 0.0 WSW 4 6 2 3 1027.5 1027.6 0.0
14/01:00am 5.9 4.6 5.8 99 0.0 SW 2 4 1 2 1027.8 1027.9 0.0
14/12:30am 4.9 2.5 4.5 97 0.2 W 6 7 3 4 1027.8 1027.9 0.0
14/12:00am 6.2 3.9 5.8 97 0.2 SW 7 9 4 5 1027.3 1027.4 0.0
 
Date/Time
EST
Temp
°C
App
Temp
°C
Dew
Point
°C
Rel
Hum
%
Delta-T
°C
Wind Press
QNH
hPa
Press
MSL
hPa
Rain since
9am
mm
Dir  Spd
km/h
Gust
km/h
Spd
kts
Gust
kts
13/11:30pm 7.5 5.1 6.9 96 0.3 WSW 9 11 5 6 1027.4 1027.5 0.0
13/11:00pm 9.1 6.2 8.3 95 0.4 SW 13 19 7 10 1027.2 1027.3 0.0
13/10:30pm 9.7 6.5 8.6 93 0.5 SW 15 19 8 10 1027.1 1027.2 0.0
13/10:00pm 10.3 7.9 8.6 89 0.8 WSW 11 15 6 8 1026.7 1026.8 0.0
13/09:30pm 11.4 8.0 9.0 85 1.2 WSW 17 22 9 12 1026.6 1026.7 0.0
13/09:00pm 12.0 8.2 9.0 82 1.5 SW 19 26 10 14 1026.6 1026.7 0.0
13/08:30pm 11.3 8.5 8.5 83 1.4 SW 13 15 7 8 1026.3 1026.4 0.0
13/08:00pm 10.8 8.1 7.5 80 1.6 SW 11 11 6 6 1026.0 1026.1 0.0
13/07:30pm 10.9 8.3 6.1 72 2.2 SW 9 11 5 6 1025.8 1025.9 0.0
13/07:00pm 13.2 11.5 7.4 68 2.8 SW 6 7 3 4 1025.2 1025.3 0.0
13/06:30pm 14.1 12.2 7.6 65 3.2 SW 7 9 4 5 1025.1 1025.2 0.0
13/06:00pm 16.5 13.8 7.2 54 4.6 SW 11 15 6 8 1025.0 1025.1 0.0
13/05:30pm 18.1 13.8 7.2 49 5.5 SW 19 24 10 13 1024.9 1025.0 0.0
13/05:00pm 19.2 14.8 6.7 44 6.3 SW 19 24 10 13 1024.7 1024.8 0.0
13/04:30pm 19.6 15.2 6.4 42 6.6 SW 19 26 10 14 1024.6 1024.7 0.0
13/04:00pm 19.6 14.7 5.3 39 7.0 SW 20 28 11 15 1024.4 1024.5 0.0
13/03:30pm 20.1 15.3 4.6 36 7.5 WSW 19 30 10 16 1024.4 1024.5 0.0
13/03:00pm 20.1 14.9 3.8 34 7.8 WSW 20 30 11 16 1024.5 1024.6 0.0
13/02:30pm 20.5 16.1 4.5 35 7.8 WSW 17 24 9 13 1024.0 1024.0 0.0
13/02:00pm 19.2 15.2 4.9 39 6.9 WSW 15 22 8 12 1024.2 1024.2 0.0
13/01:30pm 18.7 14.8 5.5 42 6.5 WSW 15 30 8 16 1024.8 1024.9 0.0
13/01:00pm 17.7 14.6 5.6 45 5.9 WSW 11 20 6 11 1025.1 1025.2 0.0
13/12:30pm 17.6 14.4 6.8 49 5.4 WSW 13 20 7 11 1025.4 1025.5 0.0
13/12:00pm 16.7 13.4 8.1 57 4.4 SW 15 24 8 13 1025.9 1026.0 0.0
13/11:30am 16.6 13.4 8.3 58 4.2 W 15 24 8 13 1026.1 1026.2 0.0
13/11:00am 15.0 12.2 8.5 65 3.3 W 13 19 7 10 1026.6 1026.7 0.0
13/10:30am 14.2 12.4 9.6 74 2.4 W 9 15 5 8 1027.0 1027.1 0.0
13/10:00am 12.2 11.2 11.1 93 0.6 NW 7 13 4 7 1026.9 1027.0 0.0
13/09:30am 9.4 8.0 9.4 100 0.0 WNW 7 11 4 6 1027.1 1027.2 0.0
13/09:00am 7.9 7.4 7.9 100 0.0 CALM 0 6 0 3 1026.6 1026.7 0.0
13/08:30am 6.0 4.7 6.0 100 0.0 ENE 2 6 1 3 1026.0 1026.1 0.0
13/08:00am 4.8 2.9 4.8 100 0.0 E 4 6 2 3 1026.1 1026.2 0.0
13/07:30am 4.2 2.5 4.2 100 0.0 SE 2 4 1 2 1026.1 1026.2 0.0
13/07:00am 3.5 0.9 3.4 99 0.0 SSW 6 9 3 5 1026.0 1026.1 0.0
13/06:30am 2.2 -0.6 2.1 99 0.0 WSW 6 7 3 4 1025.9 1026.0 0.0
13/06:00am 1.1 -2.4 1.0 99 0.0 WSW 9 9 5 5 1025.8 1025.9 0.0
13/05:30am -0.1 -3.4 -0.2 99 0.0 W 7 9 4 5 1025.3 1025.4 0.0
13/05:00am 0.1 -1.9 0.0 99 0.0 CALM 0 0 0 0 1024.6 1024.7 0.0
13/04:30am 0.9 -1.3 0.8 99 0.0 SSW 2 4 1 2 1024.6 1024.7 0.0
13/04:00am 1.1 -1.2 0.7 97 0.1 SSW 2 4 1 2 1024.6 1024.7 0.0
13/03:30am 5.3 2.9 5.2 99 0.0 S 7 9 4 5 1024.6 1024.7 0.0
13/03:00am 5.4 2.6 5.3 99 0.0 S 9 13 5 7 1024.4 1024.5 0.0
13/02:30am 6.1 4.0 6.0 99 0.0 SSE 6 9 3 5 1024.4 1024.5 0.0
13/02:00am 5.4 3.0 5.1 98 0.1 S 7 9 4 5 1024.7 1024.8 0.0
13/01:30am 6.2 4.1 5.9 98 0.1 S 6 7 3 4 1025.0 1025.1 0.0
13/01:00am 5.8 3.6 5.4 97 0.2 SSW 6 7 3 4 1025.1 1025.2 0.0
13/12:30am 5.5 3.6 4.9 96 0.3 SSW 4 6 2 3 1025.1 1025.2 0.0
13/12:00am 5.9 3.5 5.2 95 0.3 SW 7 11 4 6 1025.3 1025.4 0.0
 
Date/Time
EST
Temp
°C
App
Temp
°C
Dew
Point
°C
Rel
Hum
%
Delta-T
°C
Wind Press
QNH
hPa
Press
MSL
hPa
Rain since
9am
mm
Dir  Spd
km/h
Gust
km/h
Spd
kts
Gust
kts
12/11:30pm 7.3 5.1 6.4 94 0.4 SSW 7 11 4 6 1025.0 1025.1 0.0
12/11:00pm 7.8 5.3 6.6 92 0.6 SSW 9 11 5 6 1024.9 1025.0 0.0
12/10:30pm 8.6 5.9 7.5 93 0.5 SSW 11 15 6 8 1025.0 1025.1 0.0
12/10:00pm 8.2 5.8 7.0 92 0.6 SSW 9 9 5 5 1025.0 1025.1 0.0
12/09:30pm 9.2 6.6 7.8 91 0.7 SW 11 13 6 7 1025.0 1025.1 0.0
12/09:00pm 10.3 7.8 8.2 87 1.0 SSW 11 15 6 8 1024.8 1024.9 0.0
12/08:30pm 11.1 9.1 8.5 84 1.3 SSW 9 13 5 7 1024.8 1024.9 0.0
12/08:00pm 12.3 10.4 9.0 80 1.7 SW 9 11 5 6 1024.5 1024.6 0.0
12/07:30pm 12.1 10.5 8.9 81 1.6 WSW 7 13 4 7 1024.2 1024.2 0.0
12/07:00pm 12.5 10.5 8.8 78 1.8 WSW 9 13 5 7 1023.6 1023.6 0.0
12/06:30pm 14.4 12.9 8.6 68 2.9 SW 6 7 3 4 1023.0 1023.0 0.0
12/06:00pm 17.0 14.7 8.9 59 4.2 SW 11 13 6 7 1022.4 1022.4 0.0

Other formats

Comma delimited format used in spreadsheet applications
http://www.bom.gov.au/fwo/IDV60801/IDV60801.94838.axf

JavaScript Object Notation format (JSON) in row-major order
http://www.bom.gov.au/fwo/IDV60801/IDV60801.94838.json

Data quality

Most of these data are generated automatically and are frequently updated. Quality checks on data are not normally performed. It is possible for incorrect values to appear. Refer to information at About Latest Weather Observations and please check the disclaimer before using these data.